Wyndmere, North Dakota
Current Conditions -  °F | °C
As of 10:15 AM on Saturday 22 Nov 2014 (Local Time) from KGWR Reporting Station
Clear Clear  
Wind Chill: 25°   Ceiling: Unl
Heat Index: 36°   Visibility: 10mi
Dew Point: 30°   Wind: 17mph
Humidity: 81%   Direction: 220°SW
Pressure: 29.59"   Gusts: NA
Location:  46.27°N, 97.13°W
Report Text: KGWR 221615Z AUTO 22015KT 10SM CLR 02/M01 A2959 RMK A01 P000
Loading
Personal Weather Stations






























Interactive Weather Map New forecast layout! Learn more

10-Day Weather Forecast

Advertisements
Track Severe Weather on mobile